GFA3KP OBBI-OPKC
Flight info
| Callsign | GFA3KP |
|---|---|
| Flight time | 2h 10m |
| Altitude | 35000 |
| Route | BHR345/30R BHR N697 SODAK P559 AMBOV Q322 LOVEM Q572 SERSA P307 TONVO A777 NADSO B524 ALPOR G216 LAKIV |
| Aircraft | A320/M-SDE3FGHIRWY/LB1 |
Departure
| Time | 2026-05-09 16:03 |
|---|---|
| Airport | Bahrain International Airport (OBBI) |
Arrival
| Time | 2026-05-09 18:13 |
|---|---|
| Airport | Jinnah International Airport (OPKC) |
| Time | Latitude | Longitude | Altitude | Speed | Heading |
|---|---|---|---|---|---|
| 2026-05-09 15:33 | 26.27020 | 50.62718 | 15 ft | 0 kts | 206° |
| 2026-05-09 15:53 | 26.27034 | 50.62726 | 14 ft | 3 kts | 211° |
| 2026-05-09 15:53 | 26.27054 | 50.62740 | 16 ft | 3 kts | 211° |
| 2026-05-09 15:53 | 26.27075 | 50.62752 | 15 ft | 3 kts | 197° |
| 2026-05-09 15:53 | 26.27097 | 50.62757 | 15 ft | 3 kts | 171° |
| 2026-05-09 15:54 | 26.27115 | 50.62748 | 17 ft | 2 kts | 122° |
| 2026-05-09 15:54 | 26.27118 | 50.62742 | 15 ft | 0 kts | 122° |
| 2026-05-09 15:57 | 26.27113 | 50.62752 | 18 ft | 7 kts | 121° |
| 2026-05-09 15:57 | 26.27062 | 50.62842 | 15 ft | 15 kts | 122° |
| 2026-05-09 15:57 | 26.27009 | 50.62935 | 17 ft | 13 kts | 123° |
| 2026-05-09 15:57 | 26.26945 | 50.63045 | 14 ft | 20 kts | 122° |
| 2026-05-09 15:58 | 26.26943 | 50.63169 | 13 ft | 14 kts | 57° |
| 2026-05-09 15:58 | 26.26937 | 50.63262 | 14 ft | 12 kts | 124° |
| 2026-05-09 15:58 | 26.26893 | 50.63331 | 13 ft | 10 kts | 124° |
| 2026-05-09 15:58 | 26.26850 | 50.63406 | 13 ft | 16 kts | 121° |
| 2026-05-09 15:59 | 26.26778 | 50.63537 | 13 ft | 24 kts | 122° |
| 2026-05-09 15:59 | 26.26678 | 50.63712 | 14 ft | 31 kts | 123° |
| 2026-05-09 15:59 | 26.26548 | 50.63935 | 15 ft | 37 kts | 122° |
| 2026-05-09 15:59 | 26.26411 | 50.64177 | 13 ft | 37 kts | 122° |
| 2026-05-09 16:00 | 26.26279 | 50.64410 | 11 ft | 31 kts | 123° |
| 2026-05-09 16:00 | 26.26246 | 50.64468 | 13 ft | 25 kts | 124° |
| 2026-05-09 16:00 | 26.26098 | 50.64717 | 13 ft | 21 kts | 122° |
| 2026-05-09 16:00 | 26.26029 | 50.64847 | 15 ft | 18 kts | 113° |
| 2026-05-09 16:01 | 26.26030 | 50.64941 | 15 ft | 0 kts | 65° |
| 2026-05-09 16:01 | 26.26056 | 50.64973 | 15 ft | 13 kts | 38° |
| 2026-05-09 16:01 | 26.26156 | 50.64973 | 16 ft | 17 kts | 309° |
| 2026-05-09 16:02 | 26.26170 | 50.64948 | 17 ft | 0 kts | 302° |
| 2026-05-09 16:02 | 26.26661 | 50.64098 | 14 ft | 126 kts | 303° |
| 2026-05-09 16:02 | 26.27222 | 50.63123 | 28 ft | 170 kts | 302° |
| 2026-05-09 16:03 | 26.27870 | 50.61984 | 511 ft | 176 kts | 303° |
| 2026-05-09 16:03 | 26.28462 | 50.60793 | 1211 ft | 175 kts | 303° |
| 2026-05-09 16:03 | 26.29096 | 50.59567 | 1439 ft | 192 kts | 312° |
| 2026-05-09 16:03 | 26.30233 | 50.58708 | 1594 ft | 209 kts | 342° |
| 2026-05-09 16:04 | 26.31712 | 50.58250 | 1840 ft | 232 kts | 347° |
| 2026-05-09 16:04 | 26.33340 | 50.57842 | 2276 ft | 245 kts | 348° |
| 2026-05-09 16:04 | 26.35010 | 50.57437 | 2904 ft | 250 kts | 348° |
| 2026-05-09 16:04 | 26.36750 | 50.57137 | 3572 ft | 254 kts | 0° |
| 2026-05-09 16:05 | 26.38472 | 50.57592 | 4233 ft | 262 kts | 25° |
| 2026-05-09 16:05 | 26.39899 | 50.58916 | 4916 ft | 272 kts | 45° |
| 2026-05-09 16:05 | 26.41136 | 50.60540 | 5594 ft | 277 kts | 45° |
| 2026-05-09 16:05 | 26.42377 | 50.62192 | 6243 ft | 282 kts | 45° |
| 2026-05-09 16:06 | 26.43648 | 50.63890 | 6869 ft | 287 kts | 45° |
| 2026-05-09 16:06 | 26.44934 | 50.65606 | 7483 ft | 293 kts | 45° |
| 2026-05-09 16:06 | 26.46301 | 50.67418 | 7668 ft | 316 kts | 45° |
| 2026-05-09 16:06 | 26.47756 | 50.69344 | 8102 ft | 327 kts | 45° |
| 2026-05-09 16:07 | 26.49222 | 50.71293 | 8734 ft | 332 kts | 45° |
| 2026-05-09 16:07 | 26.50708 | 50.73274 | 9415 ft | 334 kts | 46° |
| 2026-05-09 16:07 | 26.52191 | 50.75250 | 10068 ft | 338 kts | 46° |
| 2026-05-09 16:07 | 26.53710 | 50.77269 | 10672 ft | 341 kts | 46° |
| 2026-05-09 16:08 | 26.55254 | 50.79322 | 11297 ft | 345 kts | 46° |
| 2026-05-09 16:08 | 26.56792 | 50.81371 | 11912 ft | 348 kts | 46° |
| 2026-05-09 16:08 | 26.58364 | 50.83463 | 12543 ft | 351 kts | 46° |
| 2026-05-09 16:08 | 26.59935 | 50.85551 | 13153 ft | 355 kts | 46° |
| 2026-05-09 16:09 | 26.61576 | 50.87729 | 13314 ft | 373 kts | 46° |
| 2026-05-09 16:09 | 26.63256 | 50.89961 | 13703 ft | 381 kts | 47° |
| 2026-05-09 16:09 | 26.64972 | 50.92247 | 14187 ft | 385 kts | 47° |
| 2026-05-09 16:09 | 26.66711 | 50.94566 | 14706 ft | 388 kts | 47° |
| 2026-05-09 16:10 | 26.68443 | 50.96884 | 15232 ft | 390 kts | 47° |
| 2026-05-09 16:10 | 26.70186 | 50.99221 | 15749 ft | 392 kts | 48° |
| 2026-05-09 16:10 | 26.71929 | 51.01558 | 16255 ft | 395 kts | 47° |
| 2026-05-09 16:10 | 26.73668 | 51.03973 | 16755 ft | 399 kts | 53° |
| 2026-05-09 16:11 | 26.75000 | 51.06716 | 17243 ft | 405 kts | 66° |
| 2026-05-09 16:11 | 26.75762 | 51.09768 | 17743 ft | 411 kts | 79° |
| 2026-05-09 16:11 | 26.75894 | 51.12975 | 18236 ft | 416 kts | 92° |
| 2026-05-09 16:11 | 26.75364 | 51.16176 | 18638 ft | 422 kts | 107° |
| 2026-05-09 16:12 | 26.74387 | 51.19282 | 18860 ft | 423 kts | 109° |
| 2026-05-09 16:12 | 26.73398 | 51.22350 | 18913 ft | 422 kts | 108° |
| 2026-05-09 16:12 | 26.72402 | 51.25435 | 18926 ft | 422 kts | 108° |
| 2026-05-09 16:12 | 26.71402 | 51.28536 | 19237 ft | 425 kts | 109° |
| 2026-05-09 16:13 | 26.70398 | 51.31655 | 19693 ft | 427 kts | 109° |
| 2026-05-09 16:13 | 26.69380 | 51.34809 | 20102 ft | 431 kts | 109° |
| 2026-05-09 16:13 | 26.68357 | 51.37978 | 20469 ft | 435 kts | 109° |
| 2026-05-09 16:13 | 26.67332 | 51.41154 | 20878 ft | 437 kts | 109° |
| 2026-05-09 16:14 | 26.66300 | 51.44355 | 21274 ft | 440 kts | 109° |
| 2026-05-09 16:14 | 26.65251 | 51.47611 | 21656 ft | 443 kts | 110° |
| 2026-05-09 16:14 | 26.64205 | 51.50862 | 22059 ft | 446 kts | 110° |
| 2026-05-09 16:14 | 26.63169 | 51.54089 | 22440 ft | 448 kts | 110° |
| 2026-05-09 16:15 | 26.62115 | 51.57376 | 22803 ft | 451 kts | 111° |
| 2026-05-09 16:15 | 26.61058 | 51.60673 | 23104 ft | 455 kts | 111° |
| 2026-05-09 16:15 | 26.59982 | 51.64020 | 23430 ft | 459 kts | 112° |
| 2026-05-09 16:15 | 26.58889 | 51.67402 | 23716 ft | 462 kts | 112° |
| 2026-05-09 16:16 | 26.57792 | 51.70789 | 23985 ft | 464 kts | 112° |
| 2026-05-09 16:16 | 26.56693 | 51.74187 | 24260 ft | 467 kts | 112° |
| 2026-05-09 16:16 | 26.55590 | 51.77591 | 24527 ft | 469 kts | 112° |
| 2026-05-09 16:16 | 26.54471 | 51.81043 | 24780 ft | 472 kts | 113° |
| 2026-05-09 16:17 | 26.53352 | 51.84496 | 25009 ft | 475 kts | 114° |
| 2026-05-09 16:17 | 26.52226 | 51.87975 | 25253 ft | 478 kts | 114° |
| 2026-05-09 16:17 | 26.51087 | 51.91467 | 25495 ft | 480 kts | 114° |
| 2026-05-09 16:17 | 26.49927 | 51.94976 | 25744 ft | 482 kts | 115° |
| 2026-05-09 16:18 | 26.48752 | 51.98493 | 26004 ft | 484 kts | 115° |
| 2026-05-09 16:18 | 26.47570 | 52.02017 | 26241 ft | 486 kts | 115° |
| 2026-05-09 16:18 | 26.46383 | 52.05557 | 26477 ft | 488 kts | 115° |
| 2026-05-09 16:18 | 26.45192 | 52.09115 | 26709 ft | 491 kts | 115° |
| 2026-05-09 16:19 | 26.43996 | 52.12689 | 26937 ft | 493 kts | 115° |
| 2026-05-09 16:19 | 26.42804 | 52.16253 | 27164 ft | 495 kts | 115° |
| 2026-05-09 16:19 | 26.41600 | 52.19859 | 27379 ft | 497 kts | 115° |
| 2026-05-09 16:19 | 26.40391 | 52.23480 | 27588 ft | 498 kts | 115° |
| 2026-05-09 16:20 | 26.39191 | 52.27064 | 27799 ft | 500 kts | 115° |
| 2026-05-09 16:20 | 26.37948 | 52.30769 | 28002 ft | 502 kts | 115° |
| 2026-05-09 16:20 | 26.36723 | 52.34416 | 28235 ft | 502 kts | 116° |
| 2026-05-09 16:20 | 26.35494 | 52.38064 | 28469 ft | 503 kts | 116° |
| 2026-05-09 16:21 | 26.34237 | 52.41648 | 28658 ft | 503 kts | 117° |
| 2026-05-09 16:21 | 26.32889 | 52.45253 | 28839 ft | 503 kts | 118° |
| 2026-05-09 16:21 | 26.31490 | 52.48839 | 29018 ft | 504 kts | 119° |
| 2026-05-09 16:21 | 26.30066 | 52.52416 | 29230 ft | 504 kts | 120° |
| 2026-05-09 16:22 | 26.28648 | 52.55982 | 29503 ft | 503 kts | 119° |
| 2026-05-09 16:22 | 26.27245 | 52.59552 | 29751 ft | 503 kts | 119° |
| 2026-05-09 16:22 | 26.25856 | 52.63134 | 29997 ft | 503 kts | 119° |
| 2026-05-09 16:22 | 26.24489 | 52.66697 | 30207 ft | 503 kts | 119° |
| 2026-05-09 16:23 | 26.23126 | 52.70271 | 30416 ft | 502 kts | 118° |
| 2026-05-09 16:23 | 26.21766 | 52.73853 | 30641 ft | 501 kts | 118° |
| 2026-05-09 16:23 | 26.20406 | 52.77430 | 30845 ft | 501 kts | 118° |
| 2026-05-09 16:23 | 26.19046 | 52.80992 | 31046 ft | 501 kts | 118° |
| 2026-05-09 16:24 | 26.17678 | 52.84566 | 31249 ft | 501 kts | 118° |
| 2026-05-09 16:24 | 26.16299 | 52.88153 | 31463 ft | 501 kts | 119° |
| 2026-05-09 16:24 | 26.14925 | 52.91715 | 31677 ft | 501 kts | 119° |
| 2026-05-09 16:24 | 26.13553 | 52.95272 | 31893 ft | 500 kts | 119° |
| 2026-05-09 16:25 | 26.12182 | 52.98830 | 32101 ft | 500 kts | 119° |
| 2026-05-09 16:25 | 26.11276 | 53.01185 | 32243 ft | 500 kts | 119° |
| 2026-05-09 16:25 | 26.09449 | 53.05950 | 32508 ft | 500 kts | 118° |
| 2026-05-09 16:25 | 26.08114 | 53.09522 | 32731 ft | 500 kts | 117° |
| 2026-05-09 16:26 | 26.06802 | 53.13109 | 32948 ft | 500 kts | 117° |
| 2026-05-09 16:26 | 26.05511 | 53.16677 | 33168 ft | 500 kts | 117° |
| 2026-05-09 16:26 | 26.04202 | 53.20293 | 33378 ft | 500 kts | 117° |
| 2026-05-09 16:26 | 26.02900 | 53.23875 | 33603 ft | 500 kts | 117° |
| 2026-05-09 16:27 | 26.02033 | 53.26245 | 33729 ft | 500 kts | 117° |
| 2026-05-09 16:27 | 26.00719 | 53.29815 | 33935 ft | 499 kts | 118° |
| 2026-05-09 16:27 | 25.99394 | 53.33386 | 34133 ft | 499 kts | 118° |
| 2026-05-09 16:27 | 25.97637 | 53.38108 | 34376 ft | 499 kts | 118° |
| 2026-05-09 16:28 | 25.96314 | 53.41676 | 34564 ft | 499 kts | 118° |
| 2026-05-09 16:28 | 25.94997 | 53.45236 | 34735 ft | 498 kts | 118° |
| 2026-05-09 16:28 | 25.92788 | 53.51218 | 34870 ft | 500 kts | 117° |
| 2026-05-09 16:29 | 25.90265 | 53.58428 | 34871 ft | 501 kts | 116° |
| 2026-05-09 16:29 | 25.87822 | 53.65679 | 34871 ft | 501 kts | 116° |
| 2026-05-09 16:30 | 25.85356 | 53.72920 | 34871 ft | 501 kts | 116° |
| 2026-05-09 16:30 | 25.82882 | 53.80061 | 34858 ft | 499 kts | 116° |
| 2026-05-09 16:31 | 25.80352 | 53.87295 | 34878 ft | 498 kts | 116° |
| 2026-05-09 16:31 | 25.77849 | 53.94455 | 34875 ft | 497 kts | 116° |
| 2026-05-09 16:32 | 25.75379 | 54.01563 | 34871 ft | 497 kts | 116° |
| 2026-05-09 16:32 | 25.73063 | 54.08797 | 34870 ft | 498 kts | 114° |
| 2026-05-09 16:33 | 25.70896 | 54.16107 | 34865 ft | 499 kts | 113° |
| 2026-05-09 16:33 | 25.68713 | 54.23407 | 34859 ft | 498 kts | 113° |
| 2026-05-09 16:34 | 25.66476 | 54.30665 | 34862 ft | 497 kts | 114° |
| 2026-05-09 16:34 | 25.64217 | 54.37898 | 34865 ft | 497 kts | 114° |
| 2026-05-09 16:35 | 25.61965 | 54.45120 | 34864 ft | 497 kts | 114° |
| 2026-05-09 16:35 | 25.59702 | 54.52382 | 34866 ft | 497 kts | 114° |
| 2026-05-09 16:36 | 25.55161 | 54.66844 | 34867 ft | 496 kts | 114° |
| 2026-05-09 16:37 | 25.52839 | 54.74026 | 34874 ft | 495 kts | 114° |
| 2026-05-09 16:37 | 25.50995 | 54.81380 | 34874 ft | 500 kts | 103° |
| 2026-05-09 16:38 | 25.49887 | 54.88972 | 34869 ft | 499 kts | 103° |
| 2026-05-09 16:38 | 25.48772 | 54.96555 | 34858 ft | 499 kts | 103° |
| 2026-05-09 16:39 | 25.47652 | 55.04114 | 34852 ft | 497 kts | 103° |
| 2026-05-09 16:39 | 25.46519 | 55.11663 | 34855 ft | 496 kts | 103° |
| 2026-05-09 16:40 | 25.45398 | 55.19117 | 34839 ft | 495 kts | 103° |
| 2026-05-09 16:42 | 25.36630 | 55.43376 | 34848 ft | 485 kts | 119° |
| 2026-05-09 16:42 | 25.35205 | 55.46756 | 34848 ft | 485 kts | 119° |
| 2026-05-09 16:42 | 25.32358 | 55.53500 | 34847 ft | 485 kts | 119° |
| 2026-05-09 16:43 | 25.29500 | 55.60247 | 34848 ft | 485 kts | 119° |
| 2026-05-09 16:43 | 25.26788 | 55.67072 | 34857 ft | 489 kts | 111° |
| 2026-05-09 16:44 | 25.25561 | 55.74497 | 34860 ft | 494 kts | 99° |
| 2026-05-09 16:44 | 25.24748 | 55.82059 | 34866 ft | 494 kts | 100° |
| 2026-05-09 16:45 | 25.23915 | 55.89597 | 34864 ft | 494 kts | 100° |
| 2026-05-09 16:45 | 25.23074 | 55.97135 | 34864 ft | 494 kts | 100° |
| 2026-05-09 16:46 | 25.22219 | 56.04662 | 34856 ft | 494 kts | 100° |
| 2026-05-09 16:46 | 25.21298 | 56.12129 | 34844 ft | 492 kts | 106° |
| 2026-05-09 16:47 | 25.19245 | 56.19269 | 34837 ft | 487 kts | 113° |
| 2026-05-09 16:47 | 25.16993 | 56.26325 | 34817 ft | 487 kts | 113° |
| 2026-05-09 16:48 | 25.14736 | 56.33376 | 34816 ft | 487 kts | 112° |
| 2026-05-09 16:48 | 25.12477 | 56.40427 | 34821 ft | 487 kts | 113° |
| 2026-05-09 16:49 | 25.10215 | 56.47472 | 34830 ft | 487 kts | 113° |
| 2026-05-09 16:50 | 25.07390 | 56.58240 | 34830 ft | 490 kts | 105° |
| 2026-05-09 16:50 | 25.05997 | 56.65589 | 34825 ft | 489 kts | 104° |
| 2026-05-09 16:51 | 25.04599 | 56.72928 | 34833 ft | 489 kts | 104° |
| 2026-05-09 16:51 | 25.03196 | 56.80257 | 34832 ft | 488 kts | 104° |
| 2026-05-09 16:52 | 25.01801 | 56.87553 | 34840 ft | 488 kts | 104° |
| 2026-05-09 16:52 | 25.00400 | 56.94866 | 34838 ft | 487 kts | 104° |
| 2026-05-09 16:53 | 24.98986 | 57.02188 | 34849 ft | 487 kts | 104° |
| 2026-05-09 16:53 | 24.97569 | 57.09480 | 34848 ft | 486 kts | 104° |
| 2026-05-09 16:54 | 24.96157 | 57.16771 | 34847 ft | 486 kts | 104° |
| 2026-05-09 16:54 | 24.94746 | 57.24054 | 34834 ft | 486 kts | 104° |
| 2026-05-09 16:55 | 24.93321 | 57.31331 | 34844 ft | 486 kts | 104° |
| 2026-05-09 16:55 | 24.91901 | 57.38576 | 34840 ft | 485 kts | 104° |
| 2026-05-09 16:56 | 24.90479 | 57.45824 | 34845 ft | 485 kts | 104° |
| 2026-05-09 16:56 | 24.89052 | 57.53088 | 34840 ft | 485 kts | 104° |
| 2026-05-09 16:57 | 24.87622 | 57.60343 | 34843 ft | 484 kts | 104° |
| 2026-05-09 16:57 | 24.86189 | 57.67591 | 34841 ft | 484 kts | 104° |
| 2026-05-09 16:58 | 24.84754 | 57.74836 | 34837 ft | 484 kts | 104° |
| 2026-05-09 16:58 | 24.83310 | 57.82082 | 34826 ft | 484 kts | 104° |
| 2026-05-09 16:59 | 24.81856 | 57.89319 | 34822 ft | 483 kts | 104° |
| 2026-05-09 16:59 | 24.80388 | 57.96530 | 34828 ft | 483 kts | 104° |
| 2026-05-09 17:00 | 24.78914 | 58.03741 | 34833 ft | 483 kts | 104° |
| 2026-05-09 17:00 | 24.77443 | 58.10947 | 34836 ft | 483 kts | 104° |
| 2026-05-09 17:01 | 24.75976 | 58.18121 | 34835 ft | 483 kts | 104° |
| 2026-05-09 17:01 | 24.74501 | 58.25328 | 34829 ft | 483 kts | 104° |
| 2026-05-09 17:02 | 24.73019 | 58.32536 | 34826 ft | 483 kts | 104° |
| 2026-05-09 17:02 | 24.71536 | 58.39737 | 34814 ft | 483 kts | 104° |
| 2026-05-09 17:03 | 24.70044 | 58.46939 | 34822 ft | 483 kts | 104° |
| 2026-05-09 17:05 | 24.64049 | 58.75764 | 34809 ft | 483 kts | 104° |
| 2026-05-09 17:05 | 24.62537 | 58.82971 | 34814 ft | 483 kts | 104° |
| 2026-05-09 17:06 | 24.61029 | 58.90173 | 34817 ft | 483 kts | 104° |
| 2026-05-09 17:06 | 24.59518 | 58.97365 | 34815 ft | 483 kts | 104° |
| 2026-05-09 17:07 | 24.58012 | 59.04513 | 34811 ft | 483 kts | 104° |
| 2026-05-09 17:07 | 24.56496 | 59.11697 | 34813 ft | 483 kts | 104° |
| 2026-05-09 17:08 | 24.54973 | 59.18888 | 34814 ft | 482 kts | 104° |
| 2026-05-09 17:08 | 24.52676 | 59.29651 | 34809 ft | 483 kts | 104° |
| 2026-05-09 17:09 | 24.51140 | 59.36804 | 34812 ft | 483 kts | 104° |
| 2026-05-09 17:09 | 24.49616 | 59.43944 | 34815 ft | 483 kts | 104° |
| 2026-05-09 17:10 | 24.48081 | 59.51139 | 34812 ft | 483 kts | 104° |
| 2026-05-09 17:10 | 24.46541 | 59.58310 | 34812 ft | 483 kts | 104° |
| 2026-05-09 17:11 | 24.44996 | 59.65483 | 34813 ft | 483 kts | 104° |
| 2026-05-09 17:11 | 24.43441 | 59.72650 | 34810 ft | 482 kts | 104° |
| 2026-05-09 17:12 | 24.41884 | 59.79814 | 34815 ft | 482 kts | 104° |
| 2026-05-09 17:12 | 24.40338 | 59.86972 | 34816 ft | 482 kts | 104° |
| 2026-05-09 17:13 | 24.38781 | 59.94140 | 34806 ft | 482 kts | 104° |
| 2026-05-09 17:13 | 24.37220 | 60.01295 | 34812 ft | 482 kts | 104° |
| 2026-05-09 17:14 | 24.35916 | 60.07243 | 34814 ft | 483 kts | 104° |
| 2026-05-09 17:14 | 24.34345 | 60.14405 | 34823 ft | 483 kts | 104° |
| 2026-05-09 17:15 | 24.32777 | 60.21569 | 34817 ft | 483 kts | 104° |
| 2026-05-09 17:15 | 24.31206 | 60.28731 | 34811 ft | 483 kts | 104° |
| 2026-05-09 17:17 | 24.24874 | 60.57311 | 34820 ft | 483 kts | 104° |
| 2026-05-09 17:18 | 24.23292 | 60.64463 | 34820 ft | 483 kts | 104° |
| 2026-05-09 17:18 | 24.21695 | 60.71613 | 34821 ft | 483 kts | 104° |
| 2026-05-09 17:19 | 24.20093 | 60.78760 | 34819 ft | 483 kts | 104° |
| 2026-05-09 17:19 | 24.18493 | 60.85904 | 34823 ft | 483 kts | 104° |
| 2026-05-09 17:20 | 24.16893 | 60.93058 | 34826 ft | 483 kts | 104° |
| 2026-05-09 17:20 | 24.15293 | 61.00204 | 34825 ft | 483 kts | 104° |
| 2026-05-09 17:21 | 24.13695 | 61.07298 | 34823 ft | 483 kts | 104° |
| 2026-05-09 17:21 | 24.12077 | 61.14432 | 34825 ft | 483 kts | 104° |
| 2026-05-09 17:22 | 24.10473 | 61.21572 | 34827 ft | 483 kts | 104° |
| 2026-05-09 17:22 | 24.08865 | 61.28709 | 34829 ft | 483 kts | 103° |
| 2026-05-09 17:23 | 24.08289 | 61.35999 | 34828 ft | 482 kts | 85° |
| 2026-05-09 17:23 | 24.09280 | 61.43248 | 34827 ft | 482 kts | 80° |
| 2026-05-09 17:25 | 24.12441 | 61.64981 | 34828 ft | 482 kts | 80° |
| 2026-05-09 17:25 | 24.13492 | 61.72235 | 34827 ft | 482 kts | 80° |
| 2026-05-09 17:26 | 24.14541 | 61.79474 | 34825 ft | 481 kts | 81° |
| 2026-05-09 17:26 | 24.15551 | 61.86678 | 34822 ft | 481 kts | 81° |
| 2026-05-09 17:27 | 24.16528 | 61.93934 | 34831 ft | 482 kts | 81° |
| 2026-05-09 17:27 | 24.17500 | 62.01195 | 34833 ft | 482 kts | 81° |
| 2026-05-09 17:28 | 24.18476 | 62.08460 | 34833 ft | 482 kts | 81° |
| 2026-05-09 17:28 | 24.19454 | 62.15723 | 34834 ft | 482 kts | 81° |
| 2026-05-09 17:29 | 24.20434 | 62.22989 | 34830 ft | 482 kts | 81° |
| 2026-05-09 17:29 | 24.21408 | 62.30250 | 34830 ft | 482 kts | 81° |
| 2026-05-09 17:30 | 24.22370 | 62.37512 | 34833 ft | 482 kts | 81° |
| 2026-05-09 17:30 | 24.23327 | 62.44778 | 34831 ft | 482 kts | 81° |
| 2026-05-09 17:31 | 24.24287 | 62.52044 | 34830 ft | 482 kts | 81° |
| 2026-05-09 17:32 | 24.26665 | 62.70209 | 34830 ft | 481 kts | 81° |
| 2026-05-09 17:33 | 24.27615 | 62.77472 | 34831 ft | 481 kts | 81° |
| 2026-05-09 17:33 | 24.28562 | 62.84735 | 34831 ft | 481 kts | 81° |
| 2026-05-09 17:34 | 24.29499 | 62.91997 | 34829 ft | 481 kts | 81° |
| 2026-05-09 17:35 | 24.32748 | 63.17367 | 34820 ft | 481 kts | 81° |
| 2026-05-09 17:36 | 24.33669 | 63.24632 | 34826 ft | 481 kts | 81° |
| 2026-05-09 17:36 | 24.34593 | 63.31899 | 34830 ft | 480 kts | 81° |
| 2026-05-09 17:37 | 24.35505 | 63.39155 | 34832 ft | 480 kts | 82° |
| 2026-05-09 17:37 | 24.36417 | 63.46413 | 34834 ft | 480 kts | 82° |
| 2026-05-09 17:38 | 24.37325 | 63.53671 | 34833 ft | 480 kts | 81° |
| 2026-05-09 17:39 | 24.38683 | 63.64562 | 34840 ft | 480 kts | 82° |
| 2026-05-09 17:39 | 24.39584 | 63.71824 | 34839 ft | 481 kts | 82° |
| 2026-05-09 17:40 | 24.40472 | 63.79046 | 34844 ft | 481 kts | 82° |
| 2026-05-09 17:40 | 24.41374 | 63.86320 | 34843 ft | 481 kts | 82° |
| 2026-05-09 17:41 | 24.42264 | 63.93587 | 34845 ft | 481 kts | 82° |
| 2026-05-09 17:41 | 24.43147 | 64.00863 | 34848 ft | 481 kts | 82° |
| 2026-05-09 17:42 | 24.44031 | 64.08138 | 34852 ft | 481 kts | 82° |
| 2026-05-09 17:42 | 24.44903 | 64.15416 | 34852 ft | 481 kts | 82° |
| 2026-05-09 17:43 | 24.45771 | 64.22697 | 34849 ft | 481 kts | 82° |
| 2026-05-09 17:43 | 24.46650 | 64.29974 | 34848 ft | 481 kts | 82° |
| 2026-05-09 17:44 | 24.47530 | 64.37247 | 34849 ft | 481 kts | 82° |
| 2026-05-09 17:44 | 24.48390 | 64.44528 | 34851 ft | 481 kts | 82° |
| 2026-05-09 17:45 | 24.49241 | 64.51745 | 34856 ft | 481 kts | 82° |
| 2026-05-09 17:45 | 24.50099 | 64.59060 | 34854 ft | 481 kts | 82° |
| 2026-05-09 17:46 | 24.50953 | 64.66346 | 34852 ft | 481 kts | 82° |
| 2026-05-09 17:46 | 24.51808 | 64.73629 | 34855 ft | 481 kts | 82° |
| 2026-05-09 17:47 | 24.52661 | 64.80898 | 34858 ft | 481 kts | 82° |
| 2026-05-09 17:47 | 24.53413 | 64.88198 | 34860 ft | 482 kts | 84° |
| 2026-05-09 17:48 | 24.53961 | 64.95556 | 34860 ft | 482 kts | 85° |
| 2026-05-09 17:48 | 24.54463 | 65.02894 | 34865 ft | 482 kts | 85° |
| 2026-05-09 17:49 | 24.55017 | 65.10238 | 34863 ft | 482 kts | 84° |
| 2026-05-09 17:49 | 24.55595 | 65.17577 | 34864 ft | 482 kts | 84° |
| 2026-05-09 17:50 | 24.56166 | 65.24868 | 34865 ft | 482 kts | 84° |
| 2026-05-09 17:50 | 24.56913 | 65.34686 | 34864 ft | 482 kts | 84° |
| 2026-05-09 17:51 | 24.57552 | 65.43200 | 34866 ft | 482 kts | 84° |
| 2026-05-09 17:51 | 24.58101 | 65.50562 | 34866 ft | 482 kts | 84° |
| 2026-05-09 17:52 | 24.58652 | 65.57897 | 34867 ft | 482 kts | 84° |
| 2026-05-09 17:52 | 24.59204 | 65.65237 | 34867 ft | 482 kts | 84° |
| 2026-05-09 17:53 | 24.59742 | 65.72585 | 34867 ft | 482 kts | 84° |
| 2026-05-09 17:53 | 24.60269 | 65.79843 | 34177 ft | 480 kts | 84° |
| 2026-05-09 17:54 | 24.60536 | 65.83497 | 33388 ft | 481 kts | 84° |
| 2026-05-09 17:54 | 24.60804 | 65.87167 | 32558 ft | 481 kts | 85° |
| 2026-05-09 17:54 | 24.61072 | 65.90861 | 31643 ft | 483 kts | 85° |
| 2026-05-09 17:54 | 24.61339 | 65.94580 | 30360 ft | 493 kts | 85° |
| 2026-05-09 17:55 | 24.61606 | 65.98357 | 29093 ft | 499 kts | 85° |
| 2026-05-09 17:55 | 24.61873 | 66.02112 | 28524 ft | 489 kts | 85° |
| 2026-05-09 17:55 | 24.62138 | 66.05810 | 27805 ft | 483 kts | 85° |
| 2026-05-09 17:55 | 24.62400 | 66.09471 | 27090 ft | 477 kts | 85° |
| 2026-05-09 17:56 | 24.62657 | 66.13078 | 26390 ft | 472 kts | 85° |
| 2026-05-09 17:56 | 24.62909 | 66.16658 | 25705 ft | 467 kts | 85° |
| 2026-05-09 17:56 | 24.63157 | 66.20200 | 25019 ft | 462 kts | 85° |
| 2026-05-09 17:57 | 24.63645 | 66.27186 | 23682 ft | 449 kts | 85° |
| 2026-05-09 17:57 | 24.63879 | 66.30551 | 22989 ft | 433 kts | 85° |
| 2026-05-09 17:57 | 24.64104 | 66.33784 | 22387 ft | 415 kts | 85° |
| 2026-05-09 17:57 | 24.64318 | 66.36886 | 21855 ft | 400 kts | 85° |
| 2026-05-09 17:58 | 24.64525 | 66.39879 | 21344 ft | 385 kts | 85° |
| 2026-05-09 17:58 | 24.64726 | 66.42784 | 20869 ft | 380 kts | 85° |
| 2026-05-09 17:58 | 24.64924 | 66.45673 | 20401 ft | 377 kts | 85° |
| 2026-05-09 17:58 | 24.65117 | 66.48537 | 19949 ft | 374 kts | 85° |
| 2026-05-09 17:59 | 24.65307 | 66.51386 | 19508 ft | 373 kts | 85° |
| 2026-05-09 17:59 | 24.65499 | 66.54218 | 19067 ft | 370 kts | 85° |
| 2026-05-09 17:59 | 24.65693 | 66.57030 | 18631 ft | 368 kts | 85° |
| 2026-05-09 17:59 | 24.65883 | 66.59797 | 18145 ft | 367 kts | 85° |
| 2026-05-09 18:00 | 24.66071 | 66.62581 | 17637 ft | 366 kts | 85° |
| 2026-05-09 18:00 | 24.66257 | 66.65350 | 17157 ft | 363 kts | 85° |
| 2026-05-09 18:00 | 24.66446 | 66.68154 | 16730 ft | 373 kts | 84° |
| 2026-05-09 18:00 | 24.66641 | 66.71022 | 16150 ft | 373 kts | 84° |
| 2026-05-09 18:01 | 24.66833 | 66.73865 | 15637 ft | 371 kts | 84° |
| 2026-05-09 18:01 | 24.67020 | 66.76670 | 15116 ft | 370 kts | 84° |
| 2026-05-09 18:01 | 24.67205 | 66.79486 | 14588 ft | 368 kts | 84° |
| 2026-05-09 18:01 | 24.67390 | 66.82299 | 14066 ft | 366 kts | 83° |
| 2026-05-09 18:02 | 24.67512 | 66.84144 | 13724 ft | 365 kts | 83° |
| 2026-05-09 18:02 | 24.67695 | 66.86910 | 13152 ft | 363 kts | 83° |
| 2026-05-09 18:02 | 24.67879 | 66.89671 | 12626 ft | 360 kts | 84° |
| 2026-05-09 18:02 | 24.68122 | 66.93289 | 11917 ft | 357 kts | 84° |
| 2026-05-09 18:03 | 24.68243 | 66.95123 | 11560 ft | 355 kts | 84° |
| 2026-05-09 18:03 | 24.68418 | 66.97828 | 11022 ft | 353 kts | 85° |
| 2026-05-09 18:03 | 24.68591 | 67.00525 | 10557 ft | 350 kts | 85° |
| 2026-05-09 18:03 | 24.68802 | 67.03130 | 10482 ft | 340 kts | 79° |
| 2026-05-09 18:04 | 24.69408 | 67.05544 | 10347 ft | 325 kts | 67° |
| 2026-05-09 18:04 | 24.70444 | 67.07724 | 10216 ft | 312 kts | 59° |
| 2026-05-09 18:04 | 24.71541 | 67.09737 | 10072 ft | 301 kts | 59° |
| 2026-05-09 18:04 | 24.72613 | 67.11712 | 9196 ft | 309 kts | 60° |
| 2026-05-09 18:05 | 24.73750 | 67.13812 | 7932 ft | 322 kts | 59° |
| 2026-05-09 18:05 | 24.74905 | 67.15949 | 6709 ft | 335 kts | 60° |
| 2026-05-09 18:05 | 24.76071 | 67.18107 | 6432 ft | 313 kts | 60° |
| 2026-05-09 18:05 | 24.77135 | 67.20078 | 6325 ft | 289 kts | 60° |
| 2026-05-09 18:06 | 24.78127 | 67.21913 | 6080 ft | 271 kts | 60° |
| 2026-05-09 18:06 | 24.79081 | 67.23683 | 5531 ft | 268 kts | 60° |
| 2026-05-09 18:06 | 24.80027 | 67.25441 | 4968 ft | 265 kts | 60° |
| 2026-05-09 18:06 | 24.80964 | 67.27182 | 4394 ft | 264 kts | 60° |
| 2026-05-09 18:07 | 24.81898 | 67.28919 | 3816 ft | 263 kts | 60° |
| 2026-05-09 18:07 | 24.82831 | 67.30648 | 3271 ft | 262 kts | 59° |
| 2026-05-09 18:07 | 24.83752 | 67.32361 | 3043 ft | 261 kts | 59° |
| 2026-05-09 18:07 | 24.84680 | 67.34086 | 3000 ft | 262 kts | 58° |
| 2026-05-09 18:08 | 24.85618 | 67.35826 | 3004 ft | 263 kts | 58° |
| 2026-05-09 18:08 | 24.86551 | 67.37540 | 3002 ft | 259 kts | 55° |
| 2026-05-09 18:08 | 24.87809 | 67.38882 | 3004 ft | 251 kts | 27° |
| 2026-05-09 18:08 | 24.89448 | 67.39410 | 3006 ft | 245 kts | 358° |
| 2026-05-09 18:09 | 24.91116 | 67.39196 | 3001 ft | 238 kts | 340° |
| 2026-05-09 18:09 | 24.92575 | 67.38444 | 2999 ft | 228 kts | 322° |
| 2026-05-09 18:09 | 24.93717 | 67.37275 | 3003 ft | 223 kts | 304° |
| 2026-05-09 18:09 | 24.94475 | 67.35815 | 3002 ft | 219 kts | 288° |
| 2026-05-09 18:10 | 24.94811 | 67.34178 | 2942 ft | 219 kts | 272° |
| 2026-05-09 18:10 | 24.94780 | 67.33072 | 2810 ft | 217 kts | 261° |
| 2026-05-09 18:10 | 24.94286 | 67.30949 | 2474 ft | 208 kts | 254° |
| 2026-05-09 18:10 | 24.93910 | 67.29465 | 2254 ft | 194 kts | 255° |
| 2026-05-09 18:11 | 24.93562 | 67.28088 | 1988 ft | 179 kts | 255° |
| 2026-05-09 18:11 | 24.93243 | 67.26828 | 1789 ft | 165 kts | 257° |
| 2026-05-09 18:11 | 24.92943 | 67.25643 | 1584 ft | 158 kts | 257° |
| 2026-05-09 18:11 | 24.92651 | 67.24489 | 1373 ft | 154 kts | 256° |
| 2026-05-09 18:12 | 24.92372 | 67.23388 | 1179 ft | 145 kts | 256° |
| 2026-05-09 18:12 | 24.92104 | 67.22327 | 1010 ft | 139 kts | 257° |
| 2026-05-09 18:12 | 24.91850 | 67.21324 | 820 ft | 137 kts | 256° |
| 2026-05-09 18:12 | 24.91595 | 67.20317 | 657 ft | 138 kts | 254° |
| 2026-05-09 18:13 | 24.91335 | 67.19291 | 473 ft | 137 kts | 256° |
| 2026-05-09 18:13 | 24.91082 | 67.18294 | 302 ft | 135 kts | 256° |
| 2026-05-09 18:13 | 24.90837 | 67.17298 | 116 ft | 131 kts | 255° |
| 2026-05-09 18:13 | 24.90656 | 67.16613 | 100 ft | 45 kts | 253° |
| 2026-05-09 18:14 | 24.90571 | 67.16267 | 97 ft | 46 kts | 254° |
| 2026-05-09 18:14 | 24.90485 | 67.15940 | 95 ft | 43 kts | 254° |
| 2026-05-09 18:14 | 24.90376 | 67.15770 | 94 ft | 21 kts | 185° |
| 2026-05-09 18:14 | 24.90309 | 67.15787 | 96 ft | 0 kts | 165° |
| 2026-05-09 18:15 | 24.90270 | 67.15814 | 95 ft | 16 kts | 127° |
| 2026-05-09 18:15 | 24.90285 | 67.15935 | 96 ft | 16 kts | 73° |
| 2026-05-09 18:15 | 24.90312 | 67.16044 | 96 ft | 14 kts | 76° |
| 2026-05-09 18:16 | 24.90335 | 67.16140 | 96 ft | 12 kts | 75° |
| 2026-05-09 18:16 | 24.90356 | 67.16224 | 99 ft | 11 kts | 75° |
| 2026-05-09 18:16 | 24.90374 | 67.16304 | 97 ft | 11 kts | 86° |
| 2026-05-09 18:16 | 24.90321 | 67.16369 | 98 ft | 15 kts | 161° |
| 2026-05-09 18:17 | 24.90221 | 67.16399 | 99 ft | 15 kts | 165° |
| 2026-05-09 18:17 | 24.90125 | 67.16431 | 97 ft | 14 kts | 159° |
| 2026-05-09 18:17 | 24.90049 | 67.16484 | 97 ft | 12 kts | 139° |
| 2026-05-09 18:17 | 24.90021 | 67.16542 | 99 ft | 7 kts | 77° |